Time;durP1;ratioP1;P1;durP2;ratioP2;P2;SDS_P1;SDS_P2;PMS_P1;PMS_P2;Temp;Humidity;BMP_temperature;BMP_pressure;BME280_temperature;BME280_humidity;BME280_pressure;Samples;Min_cycle;Max_cycle;Signal;HPM_P1;HPM_P2
2022/02/16 00:00:30;;;;;;;0.50;0.32;;;;;;;;;;5075272;28;20053;-52
2022/02/16 00:02:56;;;;;;;0.70;0.50;;;;;;;;;;5074971;28;20099;-50
2022/02/16 00:05:23;;;;;;;1.63;0.65;;;;;;;;;;5075162;28;20063;-52
2022/02/16 00:07:49;;;;;;;0.85;0.20;;;;;;;;;;5075137;28;20025;-51
2022/02/16 00:10:16;;;;;;;0.80;0.50;;;17.20;72.00;;;;;;5075099;28;20509;-52
2022/02/16 00:12:43;;;;;;;0.70;0.38;;;;;;;;;;5074965;28;20457;-52
2022/02/16 00:15:10;;;;;;;1.40;0.50;;;17.20;72.00;;;;;;5075228;28;20021;-51
2022/02/16 00:17:36;;;;;;;0.85;0.40;;;;;;;;;;5075038;28;20020;-51
2022/02/16 00:20:07;;;;;;;1.00;0.50;;;17.20;72.00;;;;;;5074885;28;20035;-50
2022/02/16 00:22:33;;;;;;;0.68;0.40;;;;;;;;;;5074822;28;20024;-50
2022/02/16 00:24:59;;;;;;;0.70;0.57;;;;;;;;;;5074812;28;20372;-50
2022/02/16 00:27:25;;;;;;;0.63;0.45;;;;;;;;;;5074737;28;20028;-50
2022/02/16 00:29:51;;;;;;;1.13;0.57;;;;;;;;;;5075036;28;20021;-51
2022/02/16 00:32:17;;;;;;;1.15;0.40;;;;;;;;;;5073783;28;20036;-50
2022/02/16 00:34:43;;;;;;;0.95;0.60;;;;;;;;;;5074696;28;20028;-50
2022/02/16 00:37:09;;;;;;;0.80;0.60;;;;;;;;;;5074600;28;20391;-52
2022/02/16 00:39:35;;;;;;;0.50;0.30;;;;;;;;;;5074581;28;20102;-51
2022/02/16 00:42:01;;;;;;;1.00;0.40;;;;;;;;;;5074507;28;20475;-52
2022/02/16 00:44:27;;;;;;;0.80;0.50;;;;;;;;;;5074435;28;20021;-53
2022/02/16 00:46:54;;;;;;;1.33;0.57;;;;;;;;;;5074443;28;20028;-51
2022/02/16 00:49:20;;;;;;;1.85;0.43;;;;;;;;;;5074571;28;20033;-50
2022/02/16 00:51:46;;;;;;;1.35;0.50;;;;;;;;;;5074231;28;20069;-52
2022/02/16 00:54:12;;;;;;;1.55;0.60;;;;;;;;;;5074305;28;20099;-50
2022/02/16 00:56:40;;;;;;;0.90;0.40;;;;;;;;;;5074190;28;20040;-52
2022/02/16 00:59:06;;;;;;;0.70;0.40;;;;;;;;;;5074197;28;20020;-51
2022/02/16 01:01:32;;;;;;;0.93;0.40;;;;;;;;;;5074017;28;20031;-52
2022/02/16 01:03:58;;;;;;;1.35;0.70;;;;;;;;;;5073874;28;20056;-52
2022/02/16 01:06:24;;;;;;;0.98;0.47;;;;;;;;;;5073964;28;20403;-50
2022/02/16 01:08:50;;;;;;;1.75;0.50;;;;;;;;;;5073910;28;20504;-51
2022/02/16 01:11:17;;;;;;;0.43;0.35;;;;;;;;;;5073928;28;20024;-51
2022/02/16 01:13:43;;;;;;;0.40;0.30;;;;;;;;;;5073818;28;20086;-51
2022/02/16 01:16:08;;;;;;;0.63;0.52;;;;;;;;;;5073763;28;20021;-52
2022/02/16 01:18:35;;;;;;;1.23;0.75;;;;;;;;;;5073677;28;20024;-49
2022/02/16 01:21:01;;;;;;;0.40;0.40;;;;;;;;;;5073609;28;20028;-49
2022/02/16 01:23:27;;;;;;;1.27;0.45;;;;;;;;;;5073520;28;20386;-53
2022/02/16 01:25:52;;;;;;;1.10;0.60;;;;;;;;;;5073567;28;20036;-52
2022/02/16 01:28:18;;;;;;;1.40;0.50;;;;;;;;;;5073554;28;20055;-51
2022/02/16 01:30:44;;;;;;;0.40;0.30;;;;;;;;;;5073619;28;20037;-54
2022/02/16 01:33:10;;;;;;;0.82;0.45;;;;;;;;;;5073378;28;20048;-50
2022/02/16 01:35:36;;;;;;;0.85;0.52;;;;;;;;;;5073389;28;20142;-50
2022/02/16 01:38:03;;;;;;;1.02;0.57;;;;;;;;;;5073405;28;20100;-52
2022/02/16 01:40:29;;;;;;;1.10;0.40;;;;;;;;;;5073293;28;20028;-52
2022/02/16 01:42:55;;;;;;;1.38;0.30;;;;;;;;;;5073333;28;20027;-53
2022/02/16 01:45:25;;;;;;;0.90;0.40;;;16.80;67.30;;;;;;5073244;28;20475;-51
2022/02/16 01:47:51;;;;;;;;;;;17.00;74.10;;;;;;5073720;28;20082;-51
2022/02/16 01:50:17;;;;;;;0.73;0.40;;;;;;;;;;5073340;28;19908;-43
2022/02/16 01:52:42;;;;;;;1.15;0.30;;;;;;;;;;5072737;28;20113;-43
2022/02/16 01:55:10;;;;;;;0.90;0.55;;;16.80;73.30;;;;;;5072863;28;20475;-43
2022/02/16 01:57:37;;;;;;;1.17;0.63;;;;;;;;;;5072761;28;20024;-43
2022/02/16 02:00:03;;;;;;;0.77;0.50;;;;;;;;;;5072809;28;20024;-43
2022/02/16 02:02:30;;;;;;;1.73;0.57;;;;;;;;;;5072624;28;20427;-44
2022/02/16 02:04:56;;;;;;;0.80;0.50;;;;;;;;;;5072924;28;20102;-43
2022/02/16 02:07:22;;;;;;;0.40;0.40;;;;;;;;;;5072705;28;20443;-42
2022/02/16 02:09:48;;;;;;;0.47;0.30;;;;;;;;;;5072607;28;20045;-43
2022/02/16 02:12:15;;;;;;;0.50;0.30;;;;;;;;;;5072452;28;20044;-42
2022/02/16 02:14:41;;;;;;;0.98;0.60;;;;;;;;;;5072480;28;20048;-43
2022/02/16 02:17:07;;;;;;;0.50;0.30;;;;;;;;;;5072431;28;20141;-43
2022/02/16 02:19:33;;;;;;;0.35;0.30;;;;;;;;;;5072685;28;20028;-43
2022/02/16 02:22:00;;;;;;;1.10;0.57;;;;;;;;;;5054383;28;20501;-44
2022/02/16 02:24:26;;;;;;;0.60;0.40;;;;;;;;;;5072433;28;20383;-43
2022/02/16 02:26:52;;;;;;;0.90;0.55;;;;;;;;;;5072378;28;20013;-42
2022/02/16 02:29:18;;;;;;;0.95;0.40;;;;;;;;;;5072548;28;20491;-43
2022/02/16 02:31:44;;;;;;;0.65;0.50;;;;;;;;;;5072226;28;20433;-42
2022/02/16 02:34:10;;;;;;;0.70;0.50;;;;;;;;;;5072112;28;20028;-42
2022/02/16 02:36:36;;;;;;;0.32;0.30;;;;;;;;;;5072177;28;20033;-43
2022/02/16 02:39:02;;;;;;;1.33;0.60;;;;;;;;;;5072209;28;20032;-42
2022/02/16 02:41:28;;;;;;;0.63;0.40;;;;;;;;;;5072239;28;20142;-43
2022/02/16 02:43:54;;;;;;;0.30;0.30;;;;;;;;;;5072437;28;20052;-43
2022/02/16 02:46:21;;;;;;;1.23;0.40;;;;;;;;;;5072095;28;20021;-42
2022/02/16 02:48:47;;;;;;;0.52;0.22;;;;;;;;;;5072101;28;20028;-43
2022/02/16 02:51:13;;;;;;;1.13;0.45;;;16.60;71.50;;;;;;5071932;28;20029;-42
2022/02/16 02:53:40;;;;;;;1.23;0.63;;;;;;;;;;5072022;28;20037;-43
2022/02/16 02:56:06;;;;;;;0.60;0.40;;;;;;;;;;5071569;28;20036;-43
2022/02/16 02:58:32;;;;;;;1.05;0.30;;;;;;;;;;5072207;28;20432;-43
2022/02/16 03:00:58;;;;;;;0.50;0.50;;;;;;;;;;5072031;28;20104;-43
2022/02/16 03:03:25;;;;;;;1.38;0.55;;;;;;;;;;5071798;28;20051;-43
2022/02/16 03:05:51;;;;;;;0.60;0.43;;;;;;;;;;5071813;28;20035;-43
2022/02/16 03:08:17;;;;;;;0.63;0.30;;;;;;;;;;5072231;28;20077;-43
2022/02/16 03:10:43;;;;;;;0.57;0.40;;;;;;;;;;5071892;28;20114;-42
2022/02/16 03:13:18;;;;;;;2.05;0.40;;;;;;;;;;5071788;28;20047;-43
2022/02/16 03:15:45;;;;;;;1.88;0.60;;;;;;;;;;5071743;28;20032;-43
2022/02/16 03:18:11;;;;;;;0.77;0.45;;;;;;;;;;5072108;28;20074;-42
2022/02/16 03:20:37;;;;;;;1.30;0.40;;;;;;;;;;5072211;28;20035;-42
2022/02/16 03:23:03;;;;;;;0.63;0.40;;;;;;;;;;5071771;28;20438;-44
2022/02/16 03:25:29;;;;;;;2.42;0.60;;;;;;;;;;5071775;28;20079;-43
2022/02/16 03:27:55;;;;;;;1.27;0.60;;;;;;;;;;5071745;28;20086;-43
2022/02/16 03:30:21;;;;;;;0.52;0.30;;;;;;;;;;5071732;28;20074;-43
2022/02/16 03:32:47;;;;;;;0.40;0.40;;;;;;;;;;5071508;28;20111;-43
2022/02/16 03:35:14;;;;;;;0.85;0.43;;;;;;;;;;5071990;28;20454;-43
2022/02/16 03:37:39;;;;;;;0.80;0.30;;;;;;;;;;5071537;28;20056;-43
2022/02/16 03:40:06;;;;;;;0.60;0.40;;;;;;;;;;5071634;28;20064;-43
2022/02/16 03:42:32;;;;;;;0.73;0.30;;;;;;;;;;5071574;28;20029;-43
2022/02/16 03:44:58;;;;;;;0.95;0.35;;;;;;;;;;5071645;28;20073;-43
2022/02/16 03:47:24;;;;;;;1.73;0.50;;;;;;;;;;5071622;28;20039;-43
2022/02/16 03:49:50;;;;;;;0.30;0.30;;;;;;;;;;5071558;28;20493;-43
2022/02/16 03:52:16;;;;;;;0.43;0.28;;;;;;;;;;5071423;28;20414;-42
2022/02/16 03:54:42;;;;;;;0.73;0.30;;;;;;;;;;5071455;28;20031;-43
2022/02/16 03:57:08;;;;;;;0.50;0.40;;;;;;;;;;5071433;28;20519;-43
2022/02/16 03:59:34;;;;;;;1.25;0.50;;;;;;;;;;5071577;28;20025;-43
2022/02/16 04:02:02;;;;;;;0.43;0.30;;;;;;;;;;5071183;28;20351;-42
2022/02/16 04:04:29;;;;;;;2.03;0.40;;;;;;;;;;5071458;28;20033;-42
2022/02/16 04:06:55;;;;;;;0.63;0.30;;;;;;;;;;5071648;28;20032;-43
2022/02/16 04:09:21;;;;;;;0.52;0.50;;;;;;;;;;5074822;28;20032;-43
2022/02/16 04:11:47;;;;;;;0.85;0.50;;;;;;;;;;5074982;28;20033;-43
2022/02/16 04:14:12;;;;;;;0.82;0.50;;;;;;;;;;5074986;28;20115;-42
2022/02/16 04:16:38;;;;;;;0.65;0.30;;;;;;;;;;5074902;28;20020;-51
2022/02/16 04:19:05;;;;;;;0.68;0.40;;;;;;;;;;5074892;28;20368;-51
2022/02/16 04:21:31;;;;;;;0.80;0.60;;;;;;;;;;5075183;28;20032;-54
2022/02/16 04:23:58;;;;;;;0.75;0.30;;;;;;;;;;5074866;28;20028;-52
2022/02/16 04:26:24;;;;;;;0.30;0.30;;;;;;;;;;5074851;28;20021;-50
2022/02/16 04:28:50;;;;;;;0.35;0.30;;;;;;;;;;5074794;28;20043;-54
2022/02/16 04:31:16;;;;;;;0.70;0.45;;;;;;;;;;5074834;28;20025;-50
2022/02/16 04:33:42;;;;;;;0.63;0.40;;;;;;;;;;5074716;28;20058;-50
2022/02/16 04:36:08;;;;;;;0.35;0.20;;;;;;;;;;5074628;28;20058;-53
2022/02/16 04:38:34;;;;;;;0.40;0.30;;;;;;;;;;5074574;28;20033;-50
2022/02/16 04:41:00;;;;;;;0.52;0.28;;;;;;;;;;5074563;28;20090;-54
2022/02/16 04:43:29;;;;;;;0.93;0.50;;;;;;;;;;5074458;28;20130;-52
2022/02/16 04:45:55;;;;;;;0.50;0.40;;;;;;;;;;5074471;28;20021;-51
2022/02/16 04:48:21;;;;;;;0.65;0.20;;;;;;;;;;5074341;28;20035;-52
2022/02/16 04:50:47;;;;;;;0.63;0.40;;;;;;;;;;5074370;28;20493;-51
2022/02/16 04:53:13;;;;;;;1.10;0.50;;;;;;;;;;5074217;28;20116;-50
2022/02/16 04:55:39;;;;;;;0.85;0.50;;;;;;;;;;5074319;28;20035;-50
2022/02/16 04:58:05;;;;;;;1.83;0.57;;;;;;;;;;5074213;28;20057;-52
2022/02/16 05:00:31;;;;;;;0.38;0.38;;;;;;;;;;5074228;28;20472;-50
2022/02/16 05:02:57;;;;;;;0.82;0.40;;;;;;;;;;5073922;28;20127;-50
2022/02/16 05:05:23;;;;;;;1.08;0.63;;;;;;;;;;5074059;28;20482;-53
2022/02/16 05:07:49;;;;;;;0.45;0.43;;;;;;;;;;5074347;28;20028;-53
2022/02/16 05:10:15;;;;;;;0.40;0.30;;;;;;;;;;5074003;28;20129;-53
2022/02/16 05:12:41;;;;;;;1.00;0.60;;;;;;;;;;5073845;28;20040;-53
2022/02/16 05:15:07;;;;;;;0.73;0.40;;;;;;;;;;5073859;28;20028;-53
2022/02/16 05:17:34;;;;;;;0.60;0.40;;;;;;;;;;5073760;28;20040;-54
2022/02/16 05:20:00;;;;;;;0.68;0.40;;;;;;;;;;5073498;28;20024;-51
2022/02/16 05:22:26;;;;;;;0.55;0.50;;;;;;;;;;5073602;28;20025;-50
2022/02/16 05:24:52;;;;;;;1.58;0.90;;;;;;;;;;5073912;28;20048;-52
2022/02/16 05:27:17;;;;;;;0.40;0.40;;;;;;;;;;5073627;28;20073;-51
2022/02/16 05:29:44;;;;;;;0.50;0.40;;;;;;;;;;5073645;28;20086;-51
2022/02/16 05:32:10;;;;;;;0.57;0.30;;;;;;;;;;5073701;28;20068;-54
2022/02/16 05:34:36;;;;;;;0.43;0.40;;;;;;;;;;5073462;28;20032;-52
2022/02/16 05:37:02;;;;;;;1.02;0.38;;;;;;;;;;5073461;28;20036;-52
2022/02/16 05:39:28;;;;;;;0.20;0.20;;;;;;;;;;5073353;28;20070;-51
2022/02/16 05:41:54;;;;;;;0.70;0.32;;;;;;;;;;5073351;28;20405;-53
2022/02/16 05:44:20;;;;;;;0.98;0.45;;;;;;;;;;5073247;28;20039;-51
2022/02/16 05:46:46;;;;;;;0.60;0.30;;;;;;;;;;5073310;28;20090;-52
2022/02/16 05:49:12;;;;;;;1.23;0.45;;;;;;;;;;5073234;28;20028;-54
2022/02/16 05:51:38;;;;;;;0.47;0.40;;;;;;;;;;5073046;28;20036;-52
2022/02/16 05:54:04;;;;;;;0.45;0.35;;;;;;;;;;5073084;28;20032;-50
2022/02/16 05:56:32;;;;;;;0.60;0.38;;;;;;;;;;5073268;28;20402;-54
2022/02/16 05:58:57;;;;;;;0.93;0.40;;;;;;;;;;5073188;28;20035;-49
2022/02/16 06:01:24;;;;;;;0.57;0.30;;;16.20;69.70;;;;;;5072881;28;20107;-52
2022/02/16 06:03:49;;;;;;;0.88;0.40;;;;;;;;;;5072723;28;20065;-53
2022/02/16 06:06:18;;;;;;;0.30;0.30;;;;;;;;;;5072898;28;20509;-53
2022/02/16 06:08:44;;;;;;;0.93;0.50;;;;;;;;;;5072730;28;20070;-50
2022/02/16 06:11:10;;;;;;;0.68;0.30;;;;;;;;;;5072791;28;20024;-54
2022/02/16 06:13:36;;;;;;;0.55;0.30;;;;;;;;;;5072641;28;20123;-52
2022/02/16 06:16:02;;;;;;;0.55;0.40;;;;;;;;;;5072720;28;20029;-52
2022/02/16 06:18:28;;;;;;;0.40;0.30;;;;;;;;;;5072656;28;20494;-51
2022/02/16 06:20:55;;;;;;;0.75;0.30;;;16.20;73.20;;;;;;5072647;28;20040;-50
2022/02/16 06:23:21;;;;;;;0.60;0.30;;;;;;;;;;5072667;28;20489;-53
2022/02/16 06:25:47;;;;;;;1.17;0.40;;;;;;;;;;5072713;28;20074;-54
2022/02/16 06:28:13;;;;;;;2.20;0.20;;;;;;;;;;5072561;28;20036;-55
2022/02/16 06:30:39;;;;;;;0.22;0.20;;;;;;;;;;5071921;28;20028;-53
2022/02/16 06:33:05;;;;;;;0.50;0.40;;;;;;;;;;5072388;28;20039;-53
2022/02/16 06:35:32;;;;;;;0.40;0.22;;;;;;;;;;5072415;28;20017;-51
2022/02/16 06:37:58;;;;;;;4.25;1.27;;;;;;;;;;5072409;28;20031;-51
2022/02/16 06:40:27;;;;;;;1.58;0.70;;;;;;;;;;5072403;28;20036;-54
2022/02/16 06:42:53;;;;;;;0.70;0.43;;;;;;;;;;5072339;28;20021;-54
2022/02/16 06:45:19;;;;;;;0.80;0.60;;;;;;;;;;5072408;28;20099;-43
2022/02/16 06:47:45;;;;;;;0.85;0.50;;;;;;;;;;5072254;28;20052;-43
2022/02/16 06:50:11;;;;;;;0.38;0.38;;;;;;;;;;5072334;28;20064;-43
2022/02/16 06:52:37;;;;;;;1.05;0.45;;;;;;;;;;5072177;28;20033;-43
2022/02/16 06:55:04;;;;;;;0.40;0.40;;;;;;;;;;5072192;28;20029;-43
2022/02/16 06:57:30;;;;;;;1.38;0.40;;;;;;;;;;5072083;28;20115;-43
2022/02/16 06:59:56;;;;;;;0.75;0.50;;;;;;;;;;5072008;28;20110;-43
2022/02/16 07:02:22;;;;;;;1.20;0.55;;;;;;;;;;5071789;28;20052;-43
2022/02/16 07:04:48;;;;;;;0.73;0.50;;;;;;;;;;5072236;28;20024;-44
2022/02/16 07:07:14;;;;;;;1.13;0.40;;;16.20;74.00;;;;;;5072004;28;20116;-43
2022/02/16 07:09:40;;;;;;;0.82;0.40;;;;;;;;;;5071791;28;20478;-44
2022/02/16 07:12:06;;;;;;;1.45;0.50;;;;;;;;;;5071767;28;20123;-45
2022/02/16 07:14:32;;;;;;;0.40;0.30;;;;;;;;;;5072157;28;20388;-43
2022/02/16 07:16:59;;;;;;;2.00;0.50;;;;;;;;;;5072006;28;20457;-43
2022/02/16 07:19:26;;;;;;;1.20;0.55;;;;;;;;;;5072042;28;20028;-44
2022/02/16 07:21:52;;;;;;;1.52;0.60;;;;;;;;;;5071810;28;20453;-43
2022/02/16 07:24:19;;;;;;;1.00;0.32;;;;;;;;;;5071750;28;20020;-43
2022/02/16 07:26:44;;;;;;;1.58;0.50;;;;;;;;;;5071788;28;20474;-43
2022/02/16 07:29:10;;;;;;;4.28;0.82;;;;;;;;;;5071909;28;20046;-42
2022/02/16 07:31:36;;;;;;;2.58;0.40;;;;;;;;;;5071557;28;20028;-42
2022/02/16 07:34:03;;;;;;;2.63;0.30;;;;;;;;;;5071648;28;20371;-42
2022/02/16 07:36:28;;;;;;;0.77;0.47;;;;;;;;;;5071622;28;20025;-43
2022/02/16 07:38:54;;;;;;;1.27;0.40;;;;;;;;;;5071756;28;20036;-43
2022/02/16 07:41:21;;;;;;;0.70;0.30;;;;;;;;;;5072425;28;20025;-43
2022/02/16 07:43:47;;;;;;;1.45;0.63;;;;;;;;;;5075548;28;20107;-43
2022/02/16 07:46:13;;;;;;;0.57;0.40;;;;;;;;;;5075512;28;20483;-42
2022/02/16 07:48:38;;;;;;;1.02;0.57;;;;;;;;;;5075441;28;20107;-44
2022/02/16 07:51:04;;;;;;;3.53;0.52;;;;;;;;;;5075370;28;20052;-43
2022/02/16 07:53:35;;;;;;;0.47;0.30;;;;;;;;;;5075310;28;20098;-43
2022/02/16 07:56:01;;;;;;;;;;;16.10;69.70;;;;;;5076086;28;20103;-43
2022/02/16 07:58:26;;;;;;;1.00;0.50;;;;;;;;;;5075319;28;19947;-49
2022/02/16 08:00:52;;;;;;;3.17;0.63;;;;;;;;;;5075083;28;20036;-49
2022/02/16 08:03:18;;;;;;;0.77;0.30;;;;;;;;;;5075037;28;20044;-48
2022/02/16 08:05:44;;;;;;;4.53;0.50;;;;;;;;;;5075087;28;20048;-50
2022/02/16 08:08:10;;;;;;;3.00;0.38;;;;;;;;;;5075141;28;20460;-49
2022/02/16 08:10:36;;;;;;;0.40;0.40;;;;;;;;;;5075245;28;20036;-50
2022/02/16 08:13:02;;;;;;;0.63;0.30;;;;;;;;;;5075150;28;20037;-50
2022/02/16 08:15:31;;;;;;;1.85;0.50;;;16.40;75.90;;;;;;5075117;28;20154;-50
2022/02/16 08:17:57;;;;;;;3.42;0.47;;;;;;;;;;5075180;28;20077;-48
2022/02/16 08:20:23;;;;;;;2.67;0.57;;;;;;;;;;5074942;28;20028;-50
2022/02/16 08:22:49;;;;;;;3.75;0.50;;;;;;;;;;5074831;28;20023;-48
2022/02/16 08:25:16;;;;;;;3.70;0.47;;;;;;;;;;5074806;28;20028;-51
2022/02/16 08:27:42;;;;;;;1.63;0.30;;;;;;;;;;5074835;28;20021;-50
2022/02/16 08:30:10;;;;;;;6.53;0.65;;;16.30;75.90;;;;;;5074546;28;20082;-51
2022/02/16 08:32:36;;;;;;;2.42;0.40;;;;;;;;;;5074652;28;20031;-52
2022/02/16 08:35:02;;;;;;;5.07;0.45;;;;;;;;;;5074713;28;20396;-49
2022/02/16 08:37:28;;;;;;;3.90;0.52;;;;;;;;;;5074870;28;20036;-49
2022/02/16 08:39:54;;;;;;;5.95;0.50;;;;;;;;;;5074567;28;20394;-50
2022/02/16 08:42:20;;;;;;;1.58;0.40;;;;;;;;;;5074563;28;20031;-50
2022/02/16 08:44:46;;;;;;;2.53;0.70;;;;;;;;;;5056483;28;20025;-50
2022/02/16 08:47:12;;;;;;;2.47;0.50;;;;;;;;;;5074358;28;20025;-51
2022/02/16 08:49:43;;;;;;;1.17;0.45;;;;;;;;;;5074374;28;20028;-50
2022/02/16 08:52:09;;;;;;;3.25;0.60;;;;;;;;;;5074354;28;20020;-50
2022/02/16 08:54:35;;;;;;;3.40;0.50;;;;;;;;;;5073696;28;20081;-50
2022/02/16 08:57:03;;;;;;;10.18;0.95;;;;;;;;;;5074459;28;20043;-50
2022/02/16 08:59:29;;;;;;;2.30;0.50;;;;;;;;;;5074374;28;20496;-49
2022/02/16 09:01:55;;;;;;;2.30;0.50;;;;;;;;;;5073840;28;20051;-50
2022/02/16 09:04:21;;;;;;;2.00;0.82;;;;;;;;;;5074089;28;20487;-50
2022/02/16 09:09:33;;;;;;;3.30;0.73;;;;;;;;;;5074304;28;20028;-50
2022/02/16 09:11:59;;;;;;;1.45;0.50;;;16.10;75.70;;;;;;5073851;28;20035;-49
2022/02/16 09:14:25;;;;;;;1.95;0.50;;;;;;;;;;5073958;28;20033;-50
2022/02/16 09:16:51;;;;;;;2.33;0.60;;;;;;;;;;5073842;28;20151;-50
2022/02/16 09:19:17;;;;;;;1.15;0.73;;;;;;;;;;5073764;28;20036;-50
2022/02/16 09:21:43;;;;;;;1.58;0.47;;;;;;;;;;5073820;28;20103;-50
2022/02/16 09:24:09;;;;;;;3.65;1.02;;;;;;;;;;5073684;28;20040;-49
2022/02/16 09:26:35;;;;;;;6.45;0.75;;;;;;;;;;5073681;28;20029;-50
2022/02/16 09:29:01;;;;;;;2.67;0.68;;;;;;;;;;5073664;28;20111;-50
2022/02/16 09:31:28;;;;;;;8.40;1.23;;;;;;;;;;5073395;28;20025;-51
2022/02/16 09:33:54;;;;;;;2.75;1.05;;;;;;;;;;5073505;28;20556;-49
2022/02/16 09:36:20;;;;;;;1.67;0.50;;;;;;;;;;5073426;28;20028;-50
2022/02/16 09:38:46;;;;;;;1.48;0.50;;;;;;;;;;5073396;28;20024;-50
2022/02/16 09:41:12;;;;;;;2.20;0.80;;;;;;;;;;5073391;28;20487;-49
2022/02/16 09:43:39;;;;;;;5.53;1.52;;;16.40;76.60;;;;;;5073275;28;20545;-55
2022/02/16 09:46:05;;;;;;;4.55;1.15;;;;;;;;;;5073295;28;20458;-54
2022/02/16 09:48:33;;;;;;;5.13;1.02;;;;;;;;;;5073224;28;20029;-53
2022/02/16 09:50:59;;;;;;;2.58;1.30;;;;;;;;;;5073460;28;20028;-53
2022/02/16 09:53:25;;;;;;;3.65;1.20;;;;;;;;;;5073015;28;20043;-54
2022/02/16 09:55:51;;;;;;;4.68;1.25;;;;;;;;;;5073172;28;20025;-53
2022/02/16 09:58:17;;;;;;;4.90;1.50;;;;;;;;;;5073045;28;20043;-54
2022/02/16 10:01:03;;;;;;;11.10;3.00;;;16.70;70.90;;;;;;5072979;28;20146;-53
2022/02/16 10:03:28;;;;;;;4.57;1.73;;;;;;;;;;5072641;28;20517;-54
2022/02/16 10:05:54;;;;;;;8.07;2.38;;;;;;;;;;5072064;28;20107;-53
2022/02/16 10:08:43;;;;;;;6.03;2.15;;;16.80;71.30;;;;;;5072740;28;20032;-54
2022/02/16 10:11:10;;;;;;;9.95;2.20;;;16.70;74.80;;;;;;5073032;28;20021;-51
2022/02/16 10:13:36;;;;;;;7.70;2.08;;;;;;;;;;5072842;28;20051;-52
2022/02/16 10:16:02;;;;;;;8.23;2.75;;;;;;;;;;5072649;28;20552;-51
2022/02/16 10:18:28;;;;;;;6.80;2.47;;;;;;;;;;5072843;28;20051;-50
2022/02/16 10:21:09;;;;;;;5.35;1.92;;;17.00;71.40;;;;;;5072852;28;20024;-53
2022/02/16 10:23:42;;;;;;;;;;;17.10;78.10;;;;;;5072719;28;20035;-53
2022/02/16 10:26:08;;;;;;;5.97;2.08;;;;;;;;;;5072680;28;19904;-52
2022/02/16 10:28:40;;;;;;;7.40;2.15;;;16.80;76.90;;;;;;5072238;28;20021;-52
2022/02/16 10:31:07;;;;;;;8.30;2.40;;;17.00;77.00;;;;;;5072563;28;20032;-52
2022/02/16 10:33:42;;;;;;;13.10;1.65;;;16.90;71.10;;;;;;5072656;28;20108;-54
2022/02/16 10:36:11;;;;;;;11.80;1.85;;;16.90;76.60;;;;;;5072448;28;20032;-54
2022/02/16 10:39:00;;;;;;;8.18;2.15;;;16.90;71.50;;;;;;5072620;28;20109;-54
2022/02/16 10:41:45;;;;;;;7.43;1.90;;;17.00;77.20;;;;;;5072439;28;20186;-54
2022/02/16 10:44:31;;;;;;;10.38;1.67;;;17.00;72.20;;;;;;5072484;28;20040;-49
2022/02/16 10:47:00;;;;;;;8.57;1.63;;;17.00;72.60;;;;;;5072257;28;20009;-54
2022/02/16 10:49:26;;;;;;;5.50;1.30;;;;;;;;;;5072252;28;20496;-54
2022/02/16 10:52:21;;;;;;;10.20;2.08;;;16.90;73.40;;;;;;5072313;28;20032;-56
2022/02/16 10:54:57;;;;;;;7.65;1.65;;;16.80;75.40;;;;;;5072209;28;20027;-56
2022/02/16 10:57:23;;;;;;;9.05;2.30;;;;;;;;;;5072278;28;20028;-55
2022/02/16 10:59:49;;;;;;;12.48;2.47;;;;;;;;;;5072309;28;20025;-56
2022/02/16 11:02:18;;;;;;;16.45;2.50;;;16.70;83.10;;;;;;5072018;28;20044;-56
2022/02/16 11:04:46;;;;;;;4.63;1.77;;;16.70;83.40;;;;;;5072428;28;20372;-56
2022/02/16 11:07:17;;;;;;;5.97;2.00;;;16.70;81.50;;;;;;5072125;28;20029;-56
2022/02/16 11:09:43;;;;;;;9.20;1.63;;;;;;;;;;5072179;28;20028;-55
2022/02/16 11:12:09;;;;;;;9.65;2.15;;;;;;;;;;5072033;28;20041;-56
2022/02/16 11:14:36;;;;;;;11.60;2.25;;;;;;;;;;5072109;28;20433;-56
2022/02/16 11:17:03;;;;;;;8.30;2.35;;;16.40;84.40;;;;;;5074136;28;20378;-56
2022/02/16 11:19:31;;;;;;;12.23;2.17;;;;;;;;;;5076427;28;20074;-54
2022/02/16 11:22:24;;;;;;;7.53;1.80;;;16.50;85.00;;;;;;5076070;28;20021;-54
2022/02/16 11:24:51;;;;;;;9.05;1.58;;;;;;;;;;5072574;28;20434;-55
2022/02/16 11:27:38;;;;;;;4.68;1.30;;;16.50;79.00;;;;;;5075762;28;20030;-55
2022/02/16 11:30:10;;;;;;;8.15;2.88;;;16.60;83.90;;;;;;5075629;28;20029;-57
2022/02/16 11:32:41;;;;;;;10.52;2.13;;;16.50;84.50;;;;;;5075336;28;20036;-55
2022/02/16 11:35:18;;;;;;;11.38;2.38;;;16.50;80.30;;;;;;5075292;28;20482;-54
2022/02/16 11:38:05;;;;;;;10.73;2.20;;;16.50;80.60;;;;;;5075665;28;20034;-54
2022/02/16 11:40:52;;;;;;;13.00;2.45;;;16.70;80.60;;;;;;5075225;28;20033;-54
2022/02/16 11:43:37;;;;;;;8.65;1.70;;;16.60;86.20;;;;;;5075331;28;20036;-52
2022/02/16 11:46:03;;;;;;;9.30;1.83;;;;;;;;;;5075043;28;20475;-54
2022/02/16 11:48:44;;;;;;;11.32;1.95;;;16.50;80.40;;;;;;5075244;28;20040;-53
2022/02/16 11:51:25;;;;;;;8.20;2.28;;;16.60;80.30;;;;;;5075054;28;20048;-53
2022/02/16 11:53:54;;;;;;;10.75;2.35;;;16.50;80.80;;;;;;5075135;28;20394;-54
2022/02/16 11:56:22;;;;;;;8.15;1.90;;;16.40;85.00;;;;;;5075346;28;20058;-56
2022/02/16 11:59:13;;;;;;;7.75;2.00;;;16.20;78.20;;;;;;5075251;28;20421;-56
2022/02/16 12:01:57;;;;;;;;;;;16.40;83.30;;;;;;5075260;28;20051;-55
2022/02/16 12:04:31;;;;;;;7.28;1.95;;;16.80;77.30;;;;;;5075049;28;19912;-55
2022/02/16 12:07:26;;;;;;;8.82;2.33;;;16.60;82.80;;;;;;5075199;28;20025;-55
2022/02/16 12:10:14;;;;;;;7.13;2.10;;;16.60;76.30;;;;;;5074849;28;20017;-55
2022/02/16 12:12:41;;;;;;;8.88;1.98;;;16.50;82.40;;;;;;5074764;28;20037;-57
2022/02/16 12:15:08;;;;;;;8.32;1.92;;;16.70;79.10;;;;;;5074780;28;20031;-56
2022/02/16 12:17:34;;;;;;;12.73;2.42;;;16.70;82.40;;;;;;5074732;28;20036;-56
2022/02/16 12:20:01;;;;;;;7.80;2.35;;;;;;;;;;5074652;28;20139;-55
2022/02/16 12:22:28;;;;;;;5.32;1.35;;;;;;;;;;5074676;28;20044;-55
2022/02/16 12:24:53;;;;;;;9.45;1.67;;;;;;;;;;5074591;28;20044;-55
2022/02/16 12:27:20;;;;;;;7.13;1.63;;;;;;;;;;5074720;28;20026;-56
2022/02/16 12:29:47;;;;;;;8.13;2.28;;;;;;;;;;5073851;28;20029;-55
2022/02/16 12:32:14;;;;;;;5.80;1.80;;;;;;;;;;5074831;28;20163;-56
2022/02/16 12:34:44;;;;;;;6.97;1.77;;;16.60;84.20;;;;;;5074828;28;20037;-54
2022/02/16 12:37:15;;;;;;;5.47;1.50;;;16.60;83.70;;;;;;5074494;28;20074;-55
2022/02/16 12:39:51;;;;;;;5.57;1.33;;;16.60;81.50;;;;;;5074582;28;20082;-55
2022/02/16 12:42:17;;;;;;;7.10;1.45;;;;;;;;;;5074430;28;20111;-55
2022/02/16 12:44:43;;;;;;;8.75;2.15;;;;;;;;;;5074395;28;20060;-55
2022/02/16 12:47:11;;;;;;;4.80;1.40;;;16.60;82.90;;;;;;5074365;28;20032;-55
2022/02/16 12:49:39;;;;;;;7.22;1.90;;;;;;;;;;5074377;28;20029;-53
2022/02/16 12:52:05;;;;;;;8.48;2.33;;;;;;;;;;5074185;28;20067;-43
2022/02/16 12:54:35;;;;;;;5.45;1.58;;;16.60;83.50;;;;;;5074266;28;20479;-43
2022/02/16 12:57:03;;;;;;;;;;;16.80;84.40;;;;;;5074826;28;20052;-43
2022/02/16 12:59:33;;;;;;;7.68;1.90;;;16.60;83.40;;;;;;5074217;28;19915;-43
2022/02/16 13:02:16;;;;;;;3.42;1.50;;;16.60;77.60;;;;;;5074141;28;20117;-43
2022/02/16 13:05:06;;;;;;;8.45;2.55;;;16.70;78.10;;;;;;5074060;28;20533;-42
2022/02/16 13:07:34;;;;;;;6.10;1.73;;;16.80;83.70;;;;;;5073912;28;20066;-43
2022/02/16 13:10:02;;;;;;;7.18;2.40;;;17.00;83.70;;;;;;5074088;28;20044;-43
2022/02/16 13:12:50;;;;;;;4.18;1.40;;;17.00;78.20;;;;;;5073745;28;20128;-43
2022/02/16 13:15:21;;;;;;;4.70;1.48;;;17.00;79.00;;;;;;5073926;28;20035;-43
2022/02/16 13:17:56;;;;;;;3.95;1.42;;;17.10;79.80;;;;;;5073655;28;20025;-43
2022/02/16 13:20:32;;;;;;;8.75;1.75;;;17.20;85.40;;;;;;5074002;28;20028;-43
2022/02/16 13:23:01;;;;;;;7.65;2.22;;;17.30;85.60;;;;;;5074025;28;20036;-43
2022/02/16 13:25:31;;;;;;;5.23;1.70;;;17.40;80.40;;;;;;5073750;28;20028;-44
2022/02/16 13:28:03;;;;;;;6.57;1.65;;;17.40;80.40;;;;;;5073729;28;20326;-43
2022/02/16 13:30:31;;;;;;;6.60;1.95;;;17.50;85.80;;;;;;5073589;28;20039;-47
2022/02/16 13:32:59;;;;;;;5.05;1.95;;;17.60;83.30;;;;;;5073462;28;20045;-43
2022/02/16 13:35:28;;;;;;;6.38;1.77;;;17.50;85.50;;;;;;5073718;28;20143;-43
2022/02/16 13:37:54;;;;;;;7.18;1.50;;;;;;;;;;5073414;28;20035;-43
2022/02/16 13:40:20;;;;;;;10.05;2.47;;;;;;;;;;5073206;28;20028;-43
2022/02/16 13:43:03;;;;;;;4.75;1.63;;;17.80;79.40;;;;;;5073389;28;20443;-43
2022/02/16 13:45:35;;;;;;;4.35;1.50;;;17.70;85.50;;;;;;5073528;28;20135;-43
2022/02/16 13:48:03;;;;;;;6.88;2.08;;;17.70;83.90;;;;;;5073333;28;20470;-44
2022/02/16 13:50:35;;;;;;;8.15;2.40;;;17.80;84.00;;;;;;5073091;28;20120;-44
2022/02/16 13:53:03;;;;;;;5.65;1.73;;;17.90;84.00;;;;;;5073099;28;20044;-45
2022/02/16 13:55:44;;;;;;;5.15;1.70;;;18.00;84.20;;;;;;5073114;28;20367;-44
2022/02/16 13:58:10;;;;;;;5.30;1.85;;;;;;;;;;5073152;28;20441;-44
2022/02/16 14:00:36;;;;;;;7.03;1.90;;;;;;;;;;5072932;28;20035;-44
2022/02/16 14:03:07;;;;;;;6.93;1.60;;;18.10;78.00;;;;;;5072822;28;20053;-45
2022/02/16 14:05:33;;;;;;;5.43;1.75;;;;;;;;;;5073035;28;20467;-44
2022/02/16 14:08:01;;;;;;;8.07;1.85;;;;;;;;;;5072917;28;20025;-45
2022/02/16 14:10:28;;;;;;;3.53;1.33;;;18.20;80.20;;;;;;5072844;28;20170;-44
2022/02/16 14:12:55;;;;;;;6.90;1.83;;;;;;;;;;5072687;28;20127;-44
2022/02/16 14:15:21;;;;;;;8.07;2.25;;;;;;;;;;5073019;28;20028;-44
2022/02/16 14:17:47;;;;;;;7.95;2.28;;;;;;;;;;5072651;28;20029;-44
2022/02/16 14:20:14;;;;;;;5.75;1.25;;;;;;;;;;5072706;28;20035;-44